Terminal Aerodrome Forecast
Issued by NWS

Home | Current Version | Previous Version | Text Only | Print | Product List | Glossary On
Versions: 1 2 3 4 5 6 7 8 9 10 11 12 13 14 15 16 17 18 19 20 21 22 23 24 25 26 27 28 29 30 31 32 33 34 35 36
684
FTUS43 KDLH 052031 AAA
TAFHIB
TAF AMD
KHIB 052031Z 0521/0618 06008KT P6SM BKN050
     FM052200 09009KT P6SM VCSH OVC030
     FM060000 14008KT 3SM -SN OVC010
     FM060100 15008KT 2SM -SN OVC006
     FM060800 21009KT P6SM OVC010
     FM061400 21010G20KT P6SM VCSH OVC015=

USA.gov is the U.S. government's official web portal to all federal, state and local government web resources and services.